Foxtrot — V7YQ5 — position and weather

sailwx.info

Track history (hours):
 
Tides and Currents Weather Stations Pressure Air Temp Water Temp Dewpoint Dewpoint Depression Visibility Wind Speed Wind Dir Waves Ship Positions

Foxtrot

Last reported at 2017-Nov-09 10:15 UTC. Time now 2017-Nov-18 12:22 UTC.
Position N 37°47' E 024°10'.
Warning: this ship's position is 9 days out of date.

Length 180 m; draft 6.1 m.

Type: Cargo ship. MMSI: 538004710.

Date/timePositionNaut miles runAvg speedWind from/ knotsBaromVisibWave heightAir tempDewpointWater temp
2017-Nov-09 10:15N 37°47' E 024°10'40 3.8
2017-Nov-08 23:45N 37°10' E 023°50'311.6
2017-Nov-08 23:28N 37°07' E 023°48'43812.6
2017-Nov-07 12:48N 36°13' E 014°47'413.4
2017-Nov-07 12:30N 36°14' E 014°42'713.7
2017-Nov-07 12:00N 36°16' E 014°34'713.7
2017-Nov-07 11:30N 36°18' E 014°26'713.4
2017-Nov-07 11:00N 36°21' E 014°18'613.2
2017-Nov-07 10:30N 36°22' E 014°10'713.2
2017-Nov-07 09:59N 36°24' E 014°02'713.3
2017-Nov-07 09:29N 36°26' E 013°54'713.0
2017-Nov-07 08:58N 36°28' E 013°46'  
Track history (hours):
 
Tides and Currents Weather Stations Pressure Air Temp Water Temp Dewpoint Dewpoint Depression Visibility Wind Speed Wind Dir Waves Ship Positions

Foxtrot

Last reported at 2017-Nov-09 10:15 UTC. Time now 2017-Nov-18 12:22 UTC.
Position N 37°47' E 024°10'.
Warning: this ship's position is 9 days out of date.

Length 180 m; draft 6.1 m.

Type: Cargo ship. MMSI: 538004710.

Date/timePositionNaut miles runAvg speedWind from/ knotsBaromVisibWave heightAir tempDewpointWater temp
2017-Nov-09 10:15N 37°47' E 024°10'40 3.8
2017-Nov-08 23:45N 37°10' E 023°50'311.6
2017-Nov-08 23:28N 37°07' E 023°48'43812.6
2017-Nov-07 12:48N 36°13' E 014°47'413.4
2017-Nov-07 12:30N 36°14' E 014°42'713.7
2017-Nov-07 12:00N 36°16' E 014°34'713.7
2017-Nov-07 11:30N 36°18' E 014°26'713.4
2017-Nov-07 11:00N 36°21' E 014°18'613.2
2017-Nov-07 10:30N 36°22' E 014°10'713.2
2017-Nov-07 09:59N 36°24' E 014°02'713.3
2017-Nov-07 09:29N 36°26' E 013°54'713.0
2017-Nov-07 08:58N 36°28' E 013°46'  

Dump ship's entire track history